sensor_id;sensor_type;location;lat;lon;timestamp;P1;durP1;ratioP1;P2;durP2;ratioP2
8397;SDS011;4236;54.504;9.588;2022-09-29T00:00:06;32.83;;;30.77;;
8397;SDS011;4236;54.504;9.588;2022-09-29T00:02:34;31.97;;;29.97;;
8397;SDS011;4236;54.504;9.588;2022-09-29T00:05:02;32.37;;;30.27;;
8397;SDS011;4236;54.504;9.588;2022-09-29T00:07:29;33.67;;;31.50;;
8397;SDS011;4236;54.504;9.588;2022-09-29T00:09:59;32.17;;;30.00;;
8397;SDS011;4236;54.504;9.588;2022-09-29T00:12:27;32.53;;;30.50;;
8397;SDS011;4236;54.504;9.588;2022-09-29T00:14:54;32.87;;;30.87;;
8397;SDS011;4236;54.504;9.588;2022-09-29T00:17:22;31.63;;;29.93;;
8397;SDS011;4236;54.504;9.588;2022-09-29T00:19:49;32.27;;;30.30;;
8397;SDS011;4236;54.504;9.588;2022-09-29T00:22:17;32.40;;;30.47;;
8397;SDS011;4236;54.504;9.588;2022-09-29T00:24:45;33.97;;;31.80;;
8397;SDS011;4236;54.504;9.588;2022-09-29T00:27:15;31.37;;;29.57;;
8397;SDS011;4236;54.504;9.588;2022-09-29T00:29:43;32.23;;;30.33;;
8397;SDS011;4236;54.504;9.588;2022-09-29T00:32:10;31.33;;;29.50;;
8397;SDS011;4236;54.504;9.588;2022-09-29T00:34:38;32.83;;;30.80;;
8397;SDS011;4236;54.504;9.588;2022-09-29T00:37:05;31.53;;;29.53;;
8397;SDS011;4236;54.504;9.588;2022-09-29T00:39:33;30.50;;;28.70;;
8397;SDS011;4236;54.504;9.588;2022-09-29T00:42:00;31.13;;;29.33;;
8397;SDS011;4236;54.504;9.588;2022-09-29T00:47:21;32.27;;;30.37;;
8397;SDS011;4236;54.504;9.588;2022-09-29T00:49:51;31.57;;;29.73;;
8397;SDS011;4236;54.504;9.588;2022-09-29T00:52:24;32.73;;;30.53;;
8397;SDS011;4236;54.504;9.588;2022-09-29T00:54:55;31.40;;;29.50;;
8397;SDS011;4236;54.504;9.588;2022-09-29T00:57:26;34.27;;;32.20;;
8397;SDS011;4236;54.504;9.588;2022-09-29T01:00:00;32.10;;;30.10;;
8397;SDS011;4236;54.504;9.588;2022-09-29T01:02:30;33.77;;;31.37;;
8397;SDS011;4236;54.504;9.588;2022-09-29T01:05:00;34.20;;;32.00;;
8397;SDS011;4236;54.504;9.588;2022-09-29T01:07:33;32.40;;;30.47;;
8397;SDS011;4236;54.504;9.588;2022-09-29T01:10:00;32.27;;;30.37;;
8397;SDS011;4236;54.504;9.588;2022-09-29T01:12:28;31.70;;;29.80;;
8397;SDS011;4236;54.504;9.588;2022-09-29T01:14:56;31.37;;;29.57;;
8397;SDS011;4236;54.504;9.588;2022-09-29T01:17:25;31.87;;;29.93;;
8397;SDS011;4236;54.504;9.588;2022-09-29T01:19:56;31.67;;;29.50;;
8397;SDS011;4236;54.504;9.588;2022-09-29T01:22:52;32.63;;;30.70;;
8397;SDS011;4236;54.504;9.588;2022-09-29T01:25:47;32.80;;;30.83;;
8397;SDS011;4236;54.504;9.588;2022-09-29T01:28:31;31.40;;;29.50;;
8397;SDS011;4236;54.504;9.588;2022-09-29T01:31:15;32.07;;;30.07;;
8397;SDS011;4236;54.504;9.588;2022-09-29T01:33:48;30.83;;;28.93;;
8397;SDS011;4236;54.504;9.588;2022-09-29T01:36:23;30.67;;;28.70;;
8397;SDS011;4236;54.504;9.588;2022-09-29T01:39:01;29.87;;;28.13;;
8397;SDS011;4236;54.504;9.588;2022-09-29T01:41:37;30.50;;;28.70;;
8397;SDS011;4236;54.504;9.588;2022-09-29T01:44:12;31.23;;;29.37;;
8397;SDS011;4236;54.504;9.588;2022-09-29T01:46:47;30.40;;;28.67;;
8397;SDS011;4236;54.504;9.588;2022-09-29T01:49:19;32.17;;;30.13;;
8397;SDS011;4236;54.504;9.588;2022-09-29T01:51:51;32.30;;;30.40;;
8397;SDS011;4236;54.504;9.588;2022-09-29T01:54:24;32.37;;;30.17;;
8397;SDS011;4236;54.504;9.588;2022-09-29T01:56:58;30.30;;;28.37;;
8397;SDS011;4236;54.504;9.588;2022-09-29T01:59:29;30.27;;;28.40;;
8397;SDS011;4236;54.504;9.588;2022-09-29T02:02:05;31.57;;;29.67;;
8397;SDS011;4236;54.504;9.588;2022-09-29T02:04:36;30.43;;;28.63;;
8397;SDS011;4236;54.504;9.588;2022-09-29T02:07:10;32.40;;;30.20;;
8397;SDS011;4236;54.504;9.588;2022-09-29T02:09:45;31.43;;;29.43;;
8397;SDS011;4236;54.504;9.588;2022-09-29T02:12:20;31.80;;;29.70;;
8397;SDS011;4236;54.504;9.588;2022-09-29T02:14:53;33.60;;;30.93;;
8397;SDS011;4236;54.504;9.588;2022-09-29T02:17:25;34.47;;;31.97;;
8397;SDS011;4236;54.504;9.588;2022-09-29T02:19:57;30.70;;;28.70;;
8397;SDS011;4236;54.504;9.588;2022-09-29T02:22:25;32.73;;;30.47;;
8397;SDS011;4236;54.504;9.588;2022-09-29T02:24:53;32.40;;;30.50;;
8397;SDS011;4236;54.504;9.588;2022-09-29T02:27:25;34.27;;;31.97;;
8397;SDS011;4236;54.504;9.588;2022-09-29T02:29:54;33.67;;;31.33;;
8397;SDS011;4236;54.504;9.588;2022-09-29T02:32:25;34.47;;;31.97;;
8397;SDS011;4236;54.504;9.588;2022-09-29T02:34:53;32.60;;;30.43;;
8397;SDS011;4236;54.504;9.588;2022-09-29T02:37:34;33.87;;;31.47;;
8397;SDS011;4236;54.504;9.588;2022-09-29T02:40:21;35.37;;;32.77;;
8397;SDS011;4236;54.504;9.588;2022-09-29T02:43:01;36.77;;;34.07;;
8397;SDS011;4236;54.504;9.588;2022-09-29T02:45:40;37.83;;;34.67;;
8397;SDS011;4236;54.504;9.588;2022-09-29T02:48:26;37.47;;;34.50;;
8397;SDS011;4236;54.504;9.588;2022-09-29T02:51:09;39.20;;;35.77;;
8397;SDS011;4236;54.504;9.588;2022-09-29T02:53:46;40.00;;;36.63;;
8397;SDS011;4236;54.504;9.588;2022-09-29T02:56:26;37.53;;;34.43;;
8397;SDS011;4236;54.504;9.588;2022-09-29T02:59:02;42.70;;;39.07;;
8397;SDS011;4236;54.504;9.588;2022-09-29T03:01:33;43.63;;;39.30;;
8397;SDS011;4236;54.504;9.588;2022-09-29T03:04:08;40.57;;;36.80;;
8397;SDS011;4236;54.504;9.588;2022-09-29T03:06:35;44.77;;;40.40;;
8397;SDS011;4236;54.504;9.588;2022-09-29T03:09:03;41.17;;;37.70;;
8397;SDS011;4236;54.504;9.588;2022-09-29T03:11:30;45.97;;;41.30;;
8397;SDS011;4236;54.504;9.588;2022-09-29T03:13:58;42.80;;;39.00;;
8397;SDS011;4236;54.504;9.588;2022-09-29T03:16:26;44.77;;;40.63;;
8397;SDS011;4236;54.504;9.588;2022-09-29T03:18:53;41.60;;;38.10;;
8397;SDS011;4236;54.504;9.588;2022-09-29T03:21:23;42.40;;;38.20;;
8397;SDS011;4236;54.504;9.588;2022-09-29T03:23:51;41.43;;;37.73;;
8397;SDS011;4236;54.504;9.588;2022-09-29T03:26:23;38.87;;;35.67;;
8397;SDS011;4236;54.504;9.588;2022-09-29T03:28:50;42.47;;;38.63;;
8397;SDS011;4236;54.504;9.588;2022-09-29T03:31:18;46.23;;;41.53;;
8397;SDS011;4236;54.504;9.588;2022-09-29T03:33:47;43.97;;;40.10;;
8397;SDS011;4236;54.504;9.588;2022-09-29T03:36:14;45.30;;;41.00;;
8397;SDS011;4236;54.504;9.588;2022-09-29T03:38:43;44.70;;;40.47;;
8397;SDS011;4236;54.504;9.588;2022-09-29T03:41:12;43.47;;;39.40;;
8397;SDS011;4236;54.504;9.588;2022-09-29T03:43:40;43.90;;;40.20;;
8397;SDS011;4236;54.504;9.588;2022-09-29T03:46:08;42.30;;;38.47;;
8397;SDS011;4236;54.504;9.588;2022-09-29T03:48:36;41.03;;;37.63;;
8397;SDS011;4236;54.504;9.588;2022-09-29T03:51:04;43.00;;;39.10;;
8397;SDS011;4236;54.504;9.588;2022-09-29T03:53:32;43.30;;;39.40;;
8397;SDS011;4236;54.504;9.588;2022-09-29T03:56:01;47.20;;;42.70;;
8397;SDS011;4236;54.504;9.588;2022-09-29T03:58:30;43.27;;;39.57;;
8397;SDS011;4236;54.504;9.588;2022-09-29T04:00:58;44.97;;;40.63;;
8397;SDS011;4236;54.504;9.588;2022-09-29T04:03:27;45.80;;;41.57;;
8397;SDS011;4236;54.504;9.588;2022-09-29T04:05:54;44.77;;;40.40;;
8397;SDS011;4236;54.504;9.588;2022-09-29T04:08:22;47.53;;;42.97;;
8397;SDS011;4236;54.504;9.588;2022-09-29T04:10:49;44.47;;;40.47;;
8397;SDS011;4236;54.504;9.588;2022-09-29T04:13:18;49.83;;;44.57;;
8397;SDS011;4236;54.504;9.588;2022-09-29T04:15:47;45.57;;;40.97;;
8397;SDS011;4236;54.504;9.588;2022-09-29T04:18:14;46.40;;;42.10;;
8397;SDS011;4236;54.504;9.588;2022-09-29T04:20:42;49.40;;;44.33;;
8397;SDS011;4236;54.504;9.588;2022-09-29T04:23:10;51.00;;;46.13;;
8397;SDS011;4236;54.504;9.588;2022-09-29T04:25:38;47.80;;;43.37;;
8397;SDS011;4236;54.504;9.588;2022-09-29T04:28:06;47.73;;;43.00;;
8397;SDS011;4236;54.504;9.588;2022-09-29T04:30:34;44.67;;;40.87;;
8397;SDS011;4236;54.504;9.588;2022-09-29T04:33:02;50.70;;;45.70;;
8397;SDS011;4236;54.504;9.588;2022-09-29T04:35:30;48.07;;;43.67;;
8397;SDS011;4236;54.504;9.588;2022-09-29T04:38:02;47.33;;;42.90;;
8397;SDS011;4236;54.504;9.588;2022-09-29T04:40:29;48.07;;;43.77;;
8397;SDS011;4236;54.504;9.588;2022-09-29T04:42:57;48.30;;;43.40;;
8397;SDS011;4236;54.504;9.588;2022-09-29T04:45:25;48.17;;;43.63;;
8397;SDS011;4236;54.504;9.588;2022-09-29T04:47:54;46.27;;;41.97;;
8397;SDS011;4236;54.504;9.588;2022-09-29T04:50:22;49.47;;;44.73;;
8397;SDS011;4236;54.504;9.588;2022-09-29T04:52:49;48.77;;;43.77;;
8397;SDS011;4236;54.504;9.588;2022-09-29T04:55:17;49.50;;;45.00;;
8397;SDS011;4236;54.504;9.588;2022-09-29T04:57:45;47.47;;;42.80;;
8397;SDS011;4236;54.504;9.588;2022-09-29T05:00:14;47.57;;;42.73;;
8397;SDS011;4236;54.504;9.588;2022-09-29T05:02:42;47.77;;;43.20;;
8397;SDS011;4236;54.504;9.588;2022-09-29T05:05:16;49.17;;;44.27;;
8397;SDS011;4236;54.504;9.588;2022-09-29T05:07:44;43.43;;;39.53;;
8397;SDS011;4236;54.504;9.588;2022-09-29T05:10:13;49.70;;;44.80;;
8397;SDS011;4236;54.504;9.588;2022-09-29T05:12:40;46.60;;;42.53;;
8397;SDS011;4236;54.504;9.588;2022-09-29T05:15:14;48.40;;;43.70;;
8397;SDS011;4236;54.504;9.588;2022-09-29T05:17:42;49.53;;;44.67;;
8397;SDS011;4236;54.504;9.588;2022-09-29T05:20:09;47.57;;;43.07;;
8397;SDS011;4236;54.504;9.588;2022-09-29T05:22:39;48.40;;;43.70;;
8397;SDS011;4236;54.504;9.588;2022-09-29T05:25:07;47.70;;;43.53;;
8397;SDS011;4236;54.504;9.588;2022-09-29T05:27:35;46.93;;;42.43;;
8397;SDS011;4236;54.504;9.588;2022-09-29T05:30:04;47.20;;;42.93;;
8397;SDS011;4236;54.504;9.588;2022-09-29T05:32:32;49.37;;;44.97;;
8397;SDS011;4236;54.504;9.588;2022-09-29T05:35:00;47.87;;;43.57;;
8397;SDS011;4236;54.504;9.588;2022-09-29T05:37:27;46.77;;;42.87;;
8397;SDS011;4236;54.504;9.588;2022-09-29T05:39:56;48.00;;;43.70;;
8397;SDS011;4236;54.504;9.588;2022-09-29T05:42:24;48.87;;;44.57;;
8397;SDS011;4236;54.504;9.588;2022-09-29T05:44:52;46.80;;;42.27;;
8397;SDS011;4236;54.504;9.588;2022-09-29T05:47:20;45.37;;;41.60;;
8397;SDS011;4236;54.504;9.588;2022-09-29T05:49:49;48.30;;;43.83;;
8397;SDS011;4236;54.504;9.588;2022-09-29T05:52:16;50.13;;;45.20;;
8397;SDS011;4236;54.504;9.588;2022-09-29T05:54:44;44.57;;;40.80;;
8397;SDS011;4236;54.504;9.588;2022-09-29T05:57:17;44.20;;;40.47;;
8397;SDS011;4236;54.504;9.588;2022-09-29T05:59:45;48.07;;;43.50;;
8397;SDS011;4236;54.504;9.588;2022-09-29T06:02:13;49.37;;;44.50;;
8397;SDS011;4236;54.504;9.588;2022-09-29T06:04:42;46.80;;;42.80;;
8397;SDS011;4236;54.504;9.588;2022-09-29T06:07:09;46.27;;;42.23;;
8397;SDS011;4236;54.504;9.588;2022-09-29T06:09:37;46.17;;;41.57;;
8397;SDS011;4236;54.504;9.588;2022-09-29T06:12:05;44.03;;;39.80;;
8397;SDS011;4236;54.504;9.588;2022-09-29T06:14:33;44.37;;;40.60;;
8397;SDS011;4236;54.504;9.588;2022-09-29T06:17:01;45.90;;;41.97;;
8397;SDS011;4236;54.504;9.588;2022-09-29T06:19:29;42.47;;;38.80;;
8397;SDS011;4236;54.504;9.588;2022-09-29T06:21:56;42.50;;;38.57;;
8397;SDS011;4236;54.504;9.588;2022-09-29T06:24:24;41.67;;;38.07;;
8397;SDS011;4236;54.504;9.588;2022-09-29T06:26:51;40.53;;;37.27;;
8397;SDS011;4236;54.504;9.588;2022-09-29T06:29:19;40.20;;;36.60;;
8397;SDS011;4236;54.504;9.588;2022-09-29T06:31:48;39.57;;;36.47;;
8397;SDS011;4236;54.504;9.588;2022-09-29T06:34:16;40.10;;;36.57;;
8397;SDS011;4236;54.504;9.588;2022-09-29T06:36:43;40.00;;;36.60;;
8397;SDS011;4236;54.504;9.588;2022-09-29T06:39:29;39.33;;;35.90;;
8397;SDS011;4236;54.504;9.588;2022-09-29T06:41:56;36.30;;;33.17;;
8397;SDS011;4236;54.504;9.588;2022-09-29T06:44:25;35.87;;;32.20;;
8397;SDS011;4236;54.504;9.588;2022-09-29T06:46:57;31.40;;;29.30;;
8397;SDS011;4236;54.504;9.588;2022-09-29T06:49:24;30.30;;;28.50;;
8397;SDS011;4236;54.504;9.588;2022-09-29T06:51:52;30.20;;;27.90;;
8397;SDS011;4236;54.504;9.588;2022-09-29T06:54:21;28.23;;;26.53;;
8397;SDS011;4236;54.504;9.588;2022-09-29T06:56:50;27.33;;;25.77;;
8397;SDS011;4236;54.504;9.588;2022-09-29T06:59:19;25.63;;;24.13;;
8397;SDS011;4236;54.504;9.588;2022-09-29T07:01:47;26.07;;;24.67;;
8397;SDS011;4236;54.504;9.588;2022-09-29T07:04:18;24.40;;;23.20;;
8397;SDS011;4236;54.504;9.588;2022-09-29T07:06:47;24.17;;;23.17;;
8397;SDS011;4236;54.504;9.588;2022-09-29T07:09:15;24.33;;;23.07;;
8397;SDS011;4236;54.504;9.588;2022-09-29T07:11:43;24.87;;;23.80;;
8397;SDS011;4236;54.504;9.588;2022-09-29T07:14:13;25.80;;;24.30;;
8397;SDS011;4236;54.504;9.588;2022-09-29T07:16:41;25.37;;;24.17;;
8397;SDS011;4236;54.504;9.588;2022-09-29T07:19:09;24.90;;;23.80;;
8397;SDS011;4236;54.504;9.588;2022-09-29T07:21:38;25.10;;;23.80;;
8397;SDS011;4236;54.504;9.588;2022-09-29T07:24:07;24.83;;;23.83;;
8397;SDS011;4236;54.504;9.588;2022-09-29T07:26:35;24.90;;;23.70;;
8397;SDS011;4236;54.504;9.588;2022-09-29T07:29:03;24.47;;;23.37;;
8397;SDS011;4236;54.504;9.588;2022-09-29T07:31:30;24.93;;;23.83;;
8397;SDS011;4236;54.504;9.588;2022-09-29T07:34:10;27.27;;;25.77;;
8397;SDS011;4236;54.504;9.588;2022-09-29T07:36:39;26.90;;;25.33;;
8397;SDS011;4236;54.504;9.588;2022-09-29T07:39:07;26.17;;;24.50;;
8397;SDS011;4236;54.504;9.588;2022-09-29T07:41:34;25.07;;;23.87;;
8397;SDS011;4236;54.504;9.588;2022-09-29T07:44:02;23.50;;;22.50;;
8397;SDS011;4236;54.504;9.588;2022-09-29T07:46:30;25.77;;;24.50;;
8397;SDS011;4236;54.504;9.588;2022-09-29T07:48:57;25.50;;;24.30;;
8397;SDS011;4236;54.504;9.588;2022-09-29T07:51:25;25.80;;;24.60;;
8397;SDS011;4236;54.504;9.588;2022-09-29T07:53:54;25.90;;;24.70;;
8397;SDS011;4236;54.504;9.588;2022-09-29T07:56:22;25.50;;;24.20;;
8397;SDS011;4236;54.504;9.588;2022-09-29T07:58:50;27.20;;;25.80;;
8397;SDS011;4236;54.504;9.588;2022-09-29T08:01:18;25.70;;;24.40;;
8397;SDS011;4236;54.504;9.588;2022-09-29T08:03:48;25.77;;;24.57;;
8397;SDS011;4236;54.504;9.588;2022-09-29T08:06:17;24.63;;;23.63;;
8397;SDS011;4236;54.504;9.588;2022-09-29T08:08:45;24.47;;;23.03;;
8397;SDS011;4236;54.504;9.588;2022-09-29T08:11:30;23.90;;;22.80;;
8397;SDS011;4236;54.504;9.588;2022-09-29T08:13:59;24.10;;;23.10;;
8397;SDS011;4236;54.504;9.588;2022-09-29T08:16:27;25.00;;;23.80;;
8397;SDS011;4236;54.504;9.588;2022-09-29T08:18:55;24.83;;;23.63;;
8397;SDS011;4236;54.504;9.588;2022-09-29T08:21:23;25.53;;;24.47;;
8397;SDS011;4236;54.504;9.588;2022-09-29T08:23:51;23.97;;;22.77;;
8397;SDS011;4236;54.504;9.588;2022-09-29T08:26:19;24.60;;;23.30;;
8397;SDS011;4236;54.504;9.588;2022-09-29T08:29:06;23.93;;;22.93;;
8397;SDS011;4236;54.504;9.588;2022-09-29T08:31:34;23.90;;;22.90;;
8397;SDS011;4236;54.504;9.588;2022-09-29T08:34:04;24.37;;;23.37;;
8397;SDS011;4236;54.504;9.588;2022-09-29T08:36:32;24.07;;;23.17;;
8397;SDS011;4236;54.504;9.588;2022-09-29T08:39:01;24.40;;;23.30;;
8397;SDS011;4236;54.504;9.588;2022-09-29T08:41:31;24.20;;;23.30;;
8397;SDS011;4236;54.504;9.588;2022-09-29T08:44:09;24.03;;;23.00;;
8397;SDS011;4236;54.504;9.588;2022-09-29T08:47:02;24.13;;;23.13;;
8397;SDS011;4236;54.504;9.588;2022-09-29T08:49:36;24.70;;;23.70;;
8397;SDS011;4236;54.504;9.588;2022-09-29T08:52:08;24.90;;;23.90;;
8397;SDS011;4236;54.504;9.588;2022-09-29T08:54:43;24.70;;;23.70;;
8397;SDS011;4236;54.504;9.588;2022-09-29T08:57:15;24.70;;;23.60;;
8397;SDS011;4236;54.504;9.588;2022-09-29T08:59:48;24.40;;;23.30;;
8397;SDS011;4236;54.504;9.588;2022-09-29T09:05:29;24.53;;;23.53;;
8397;SDS011;4236;54.504;9.588;2022-09-29T09:08:10;24.40;;;23.40;;
8397;SDS011;4236;54.504;9.588;2022-09-29T09:10:45;24.57;;;23.47;;
8397;SDS011;4236;54.504;9.588;2022-09-29T09:13:30;24.30;;;23.30;;
8397;SDS011;4236;54.504;9.588;2022-09-29T09:16:15;23.37;;;22.40;;
8397;SDS011;4236;54.504;9.588;2022-09-29T09:19:02;23.37;;;22.37;;
8397;SDS011;4236;54.504;9.588;2022-09-29T09:21:48;23.60;;;22.70;;
8397;SDS011;4236;54.504;9.588;2022-09-29T09:24:24;23.50;;;22.60;;
8397;SDS011;4236;54.504;9.588;2022-09-29T09:27:02;23.20;;;22.30;;
8397;SDS011;4236;54.504;9.588;2022-09-29T09:29:31;23.80;;;22.80;;
8397;SDS011;4236;54.504;9.588;2022-09-29T09:32:06;22.97;;;22.17;;
8397;SDS011;4236;54.504;9.588;2022-09-29T09:34:38;23.70;;;22.70;;
8397;SDS011;4236;54.504;9.588;2022-09-29T09:37:12;23.60;;;22.50;;
8397;SDS011;4236;54.504;9.588;2022-09-29T09:39:46;23.50;;;22.50;;
8397;SDS011;4236;54.504;9.588;2022-09-29T09:42:21;23.60;;;22.60;;
8397;SDS011;4236;54.504;9.588;2022-09-29T09:44:54;24.23;;;23.03;;
8397;SDS011;4236;54.504;9.588;2022-09-29T09:47:28;26.63;;;25.43;;
8397;SDS011;4236;54.504;9.588;2022-09-29T09:50:01;25.07;;;23.97;;
8397;SDS011;4236;54.504;9.588;2022-09-29T09:52:40;26.57;;;25.20;;
8397;SDS011;4236;54.504;9.588;2022-09-29T09:55:13;23.90;;;22.80;;
8397;SDS011;4236;54.504;9.588;2022-09-29T09:57:45;23.40;;;22.40;;
8397;SDS011;4236;54.504;9.588;2022-09-29T10:00:24;25.73;;;24.47;;
8397;SDS011;4236;54.504;9.588;2022-09-29T10:02:56;26.40;;;24.80;;
8397;SDS011;4236;54.504;9.588;2022-09-29T10:05:31;24.43;;;23.33;;
8397;SDS011;4236;54.504;9.588;2022-09-29T10:08:04;24.50;;;23.50;;
8397;SDS011;4236;54.504;9.588;2022-09-29T10:10:33;23.60;;;22.60;;
8397;SDS011;4236;54.504;9.588;2022-09-29T10:13:01;25.37;;;24.07;;
8397;SDS011;4236;54.504;9.588;2022-09-29T10:15:32;23.50;;;22.60;;
8397;SDS011;4236;54.504;9.588;2022-09-29T10:18:05;24.90;;;23.80;;
8397;SDS011;4236;54.504;9.588;2022-09-29T10:20:39;25.67;;;24.27;;
8397;SDS011;4236;54.504;9.588;2022-09-29T10:23:24;24.97;;;23.90;;
8397;SDS011;4236;54.504;9.588;2022-09-29T10:25:54;26.27;;;24.97;;
8397;SDS011;4236;54.504;9.588;2022-09-29T10:28:25;24.67;;;23.57;;
8397;SDS011;4236;54.504;9.588;2022-09-29T10:30:56;24.63;;;23.53;;
8397;SDS011;4236;54.504;9.588;2022-09-29T10:33:25;24.80;;;23.70;;
8397;SDS011;4236;54.504;9.588;2022-09-29T10:36:02;24.30;;;23.30;;
8397;SDS011;4236;54.504;9.588;2022-09-29T10:38:33;25.07;;;23.97;;
8397;SDS011;4236;54.504;9.588;2022-09-29T10:41:03;26.37;;;24.97;;
8397;SDS011;4236;54.504;9.588;2022-09-29T10:43:34;24.13;;;23.13;;
8397;SDS011;4236;54.504;9.588;2022-09-29T10:46:03;24.20;;;23.20;;
8397;SDS011;4236;54.504;9.588;2022-09-29T10:48:33;23.53;;;22.63;;
8397;SDS011;4236;54.504;9.588;2022-09-29T10:51:02;24.50;;;23.50;;
8397;SDS011;4236;54.504;9.588;2022-09-29T10:53:34;24.40;;;23.30;;
8397;SDS011;4236;54.504;9.588;2022-09-29T10:56:06;23.10;;;22.20;;
8397;SDS011;4236;54.504;9.588;2022-09-29T10:58:41;23.70;;;22.70;;
8397;SDS011;4236;54.504;9.588;2022-09-29T11:01:27;24.20;;;23.17;;
8397;SDS011;4236;54.504;9.588;2022-09-29T11:03:59;24.90;;;23.70;;
8397;SDS011;4236;54.504;9.588;2022-09-29T11:06:30;24.40;;;23.40;;
8397;SDS011;4236;54.504;9.588;2022-09-29T11:09:00;24.90;;;23.70;;
8397;SDS011;4236;54.504;9.588;2022-09-29T11:11:30;24.67;;;23.60;;
8397;SDS011;4236;54.504;9.588;2022-09-29T11:14:00;25.03;;;23.90;;
8397;SDS011;4236;54.504;9.588;2022-09-29T11:16:29;24.37;;;23.27;;
8397;SDS011;4236;54.504;9.588;2022-09-29T11:19:01;23.90;;;22.90;;
8397;SDS011;4236;54.504;9.588;2022-09-29T11:21:43;25.63;;;24.03;;
8397;SDS011;4236;54.504;9.588;2022-09-29T11:24:27;24.90;;;23.73;;
8397;SDS011;4236;54.504;9.588;2022-09-29T11:27:06;25.17;;;23.77;;
8397;SDS011;4236;54.504;9.588;2022-09-29T11:29:45;25.00;;;23.90;;
8397;SDS011;4236;54.504;9.588;2022-09-29T11:32:25;24.23;;;23.23;;
8397;SDS011;4236;54.504;9.588;2022-09-29T11:35:10;25.03;;;23.97;;
8397;SDS011;4236;54.504;9.588;2022-09-29T11:37:57;24.10;;;23.10;;
8397;SDS011;4236;54.504;9.588;2022-09-29T11:40:47;24.40;;;23.40;;
8397;SDS011;4236;54.504;9.588;2022-09-29T11:43:29;25.90;;;24.63;;
8397;SDS011;4236;54.504;9.588;2022-09-29T11:46:13;24.93;;;23.80;;
8397;SDS011;4236;54.504;9.588;2022-09-29T11:48:55;24.47;;;23.40;;
8397;SDS011;4236;54.504;9.588;2022-09-29T11:51:52;25.80;;;24.50;;
8397;SDS011;4236;54.504;9.588;2022-09-29T11:54:35;27.53;;;25.70;;
8397;SDS011;4236;54.504;9.588;2022-09-29T11:57:17;29.93;;;28.03;;
8397;SDS011;4236;54.504;9.588;2022-09-29T11:59:59;27.20;;;25.90;;
8397;SDS011;4236;54.504;9.588;2022-09-29T12:02:46;28.73;;;27.23;;
8397;SDS011;4236;54.504;9.588;2022-09-29T12:05:32;27.37;;;25.97;;
8397;SDS011;4236;54.504;9.588;2022-09-29T12:08:13;28.20;;;26.10;;
8397;SDS011;4236;54.504;9.588;2022-09-29T12:10:53;27.87;;;26.50;;
8397;SDS011;4236;54.504;9.588;2022-09-29T12:13:27;29.03;;;27.00;;
8397;SDS011;4236;54.504;9.588;2022-09-29T12:16:07;28.80;;;27.30;;
8397;SDS011;4236;54.504;9.588;2022-09-29T12:18:38;29.47;;;27.67;;
8397;SDS011;4236;54.504;9.588;2022-09-29T12:21:09;27.50;;;25.90;;
8397;SDS011;4236;54.504;9.588;2022-09-29T12:23:44;29.33;;;27.70;;
8397;SDS011;4236;54.504;9.588;2022-09-29T12:26:14;29.63;;;27.83;;
8397;SDS011;4236;54.504;9.588;2022-09-29T12:28:46;27.10;;;25.20;;
8397;SDS011;4236;54.504;9.588;2022-09-29T12:31:19;27.13;;;25.53;;
8397;SDS011;4236;54.504;9.588;2022-09-29T12:33:50;26.43;;;25.13;;
8397;SDS011;4236;54.504;9.588;2022-09-29T12:36:28;26.87;;;25.60;;
8397;SDS011;4236;54.504;9.588;2022-09-29T12:39:20;27.37;;;26.03;;
8397;SDS011;4236;54.504;9.588;2022-09-29T12:41:55;27.80;;;26.30;;
8397;SDS011;4236;54.504;9.588;2022-09-29T12:44:32;27.70;;;26.40;;
8397;SDS011;4236;54.504;9.588;2022-09-29T12:47:08;27.77;;;26.27;;
8397;SDS011;4236;54.504;9.588;2022-09-29T12:49:46;28.40;;;26.90;;
8397;SDS011;4236;54.504;9.588;2022-09-29T12:52:25;26.37;;;25.13;;
8397;SDS011;4236;54.504;9.588;2022-09-29T12:55:01;27.43;;;25.87;;
8397;SDS011;4236;54.504;9.588;2022-09-29T12:57:35;26.40;;;25.07;;
8397;SDS011;4236;54.504;9.588;2022-09-29T13:00:09;26.27;;;25.07;;
8397;SDS011;4236;54.504;9.588;2022-09-29T13:05:41;26.40;;;25.00;;
8397;SDS011;4236;54.504;9.588;2022-09-29T13:08:38;25.43;;;24.07;;
8397;SDS011;4236;54.504;9.588;2022-09-29T13:11:28;29.07;;;27.57;;
8397;SDS011;4236;54.504;9.588;2022-09-29T13:14:21;26.70;;;25.40;;
8397;SDS011;4236;54.504;9.588;2022-09-29T13:16:59;26.63;;;25.30;;
8397;SDS011;4236;54.504;9.588;2022-09-29T13:22:50;27.03;;;25.80;;
8397;SDS011;4236;54.504;9.588;2022-09-29T13:25:32;28.90;;;27.40;;
8397;SDS011;4236;54.504;9.588;2022-09-29T13:28:20;31.73;;;29.90;;
8397;SDS011;4236;54.504;9.588;2022-09-29T13:30:51;44.43;;;40.60;;
8397;SDS011;4236;54.504;9.588;2022-09-29T13:33:22;28.60;;;27.00;;
8397;SDS011;4236;54.504;9.588;2022-09-29T13:35:52;32.50;;;30.60;;
8397;SDS011;4236;54.504;9.588;2022-09-29T13:38:20;28.37;;;26.93;;
8397;SDS011;4236;54.504;9.588;2022-09-29T13:41:07;34.90;;;32.87;;
8397;SDS011;4236;54.504;9.588;2022-09-29T13:43:38;29.40;;;27.80;;
8397;SDS011;4236;54.504;9.588;2022-09-29T13:46:35;31.33;;;29.13;;
8397;SDS011;4236;54.504;9.588;2022-09-29T13:49:11;34.03;;;32.00;;
8397;SDS011;4236;54.504;9.588;2022-09-29T13:51:43;28.93;;;27.33;;
8397;SDS011;4236;54.504;9.588;2022-09-29T13:54:19;25.93;;;24.83;;
8397;SDS011;4236;54.504;9.588;2022-09-29T13:56:48;27.00;;;25.70;;
8397;SDS011;4236;54.504;9.588;2022-09-29T13:59:20;29.87;;;28.30;;
8397;SDS011;4236;54.504;9.588;2022-09-29T14:01:50;27.47;;;26.27;;
8397;SDS011;4236;54.504;9.588;2022-09-29T14:04:32;26.73;;;25.50;;
8397;SDS011;4236;54.504;9.588;2022-09-29T14:07:04;28.20;;;26.40;;
8397;SDS011;4236;54.504;9.588;2022-09-29T14:09:34;26.60;;;25.23;;
8397;SDS011;4236;54.504;9.588;2022-09-29T14:12:06;27.70;;;26.40;;
8397;SDS011;4236;54.504;9.588;2022-09-29T14:14:38;26.87;;;25.43;;
8397;SDS011;4236;54.504;9.588;2022-09-29T14:17:10;26.67;;;25.13;;
8397;SDS011;4236;54.504;9.588;2022-09-29T14:19:48;27.30;;;26.10;;
8397;SDS011;4236;54.504;9.588;2022-09-29T14:25:28;24.37;;;23.10;;
8397;SDS011;4236;54.504;9.588;2022-09-29T14:28:15;25.93;;;24.60;;
8397;SDS011;4236;54.504;9.588;2022-09-29T14:30:48;26.93;;;25.43;;
8397;SDS011;4236;54.504;9.588;2022-09-29T14:33:18;25.23;;;24.20;;
8397;SDS011;4236;54.504;9.588;2022-09-29T14:35:52;28.60;;;27.13;;
8397;SDS011;4236;54.504;9.588;2022-09-29T14:38:28;27.83;;;26.13;;
8397;SDS011;4236;54.504;9.588;2022-09-29T14:40:59;26.47;;;25.27;;
8397;SDS011;4236;54.504;9.588;2022-09-29T14:43:34;26.87;;;25.67;;
8397;SDS011;4236;54.504;9.588;2022-09-29T14:49:26;27.97;;;26.57;;
8397;SDS011;4236;54.504;9.588;2022-09-29T14:52:32;26.20;;;25.10;;
8397;SDS011;4236;54.504;9.588;2022-09-29T14:55:12;27.50;;;25.97;;
8397;SDS011;4236;54.504;9.588;2022-09-29T14:57:50;26.80;;;25.60;;
8397;SDS011;4236;54.504;9.588;2022-09-29T15:00:31;27.87;;;26.57;;
8397;SDS011;4236;54.504;9.588;2022-09-29T15:03:11;26.70;;;25.60;;
8397;SDS011;4236;54.504;9.588;2022-09-29T15:06:03;26.87;;;25.57;;
8397;SDS011;4236;54.504;9.588;2022-09-29T15:08:36;26.60;;;25.37;;
8397;SDS011;4236;54.504;9.588;2022-09-29T15:13:51;25.73;;;24.63;;
8397;SDS011;4236;54.504;9.588;2022-09-29T15:16:21;26.07;;;24.97;;
8397;SDS011;4236;54.504;9.588;2022-09-29T15:19:03;26.10;;;24.90;;
8397;SDS011;4236;54.504;9.588;2022-09-29T15:21:46;27.60;;;26.00;;
8397;SDS011;4236;54.504;9.588;2022-09-29T15:27:34;27.00;;;25.70;;
8397;SDS011;4236;54.504;9.588;2022-09-29T15:30:10;25.63;;;24.50;;
8397;SDS011;4236;54.504;9.588;2022-09-29T15:32:41;24.73;;;23.63;;
8397;SDS011;4236;54.504;9.588;2022-09-29T15:35:12;25.80;;;24.70;;
8397;SDS011;4236;54.504;9.588;2022-09-29T15:37:52;24.17;;;23.10;;
8397;SDS011;4236;54.504;9.588;2022-09-29T15:40:22;26.13;;;24.03;;
8397;SDS011;4236;54.504;9.588;2022-09-29T15:42:51;24.50;;;23.50;;
8397;SDS011;4236;54.504;9.588;2022-09-29T15:45:21;24.43;;;23.33;;